Time;durP1;ratioP1;P1;durP2;ratioP2;P2;SDS_P1;SDS_P2;PMS_P1;PMS_P2;Temp;Humidity;BMP_temperature;BMP_pressure;BME280_temperature;BME280_humidity;BME280_pressure;Samples;Min_cycle;Max_cycle;Signal;HPM_P1;HPM_P2
2023/04/16 00:01:40;;;;;;;10.30;1.83;;;8.80;99.90;;;;;;5022221;28;38274;-75
2023/04/16 00:04:06;;;;;;;11.07;2.20;;;8.80;99.90;;;;;;5017525;28;36714;-75
2023/04/16 00:06:32;;;;;;;7.47;2.17;;;8.80;99.90;;;;;;5027181;28;39208;-74
2023/04/16 00:08:58;;;;;;;9.07;1.97;;;8.80;99.90;;;;;;5018783;28;38258;-76
2023/04/16 00:11:25;;;;;;;15.30;2.40;;;8.80;99.90;;;;;;5026046;28;37440;-76
2023/04/16 00:13:51;;;;;;;16.17;2.47;;;8.80;99.90;;;;;;5027960;28;37922;-76
2023/04/16 00:16:17;;;;;;;10.57;2.10;;;8.70;99.90;;;;;;5027409;28;37753;-75
2023/04/16 00:18:43;;;;;;;12.73;3.00;;;8.70;99.90;;;;;;5027697;28;37675;-75
2023/04/16 00:21:09;;;;;;;14.30;2.63;;;8.70;99.90;;;;;;5021021;28;39566;-74
2023/04/16 00:23:35;;;;;;;17.03;3.03;;;8.70;99.90;;;;;;5024662;28;37856;-76
2023/04/16 00:26:01;;;;;;;12.23;2.30;;;8.70;99.90;;;;;;5023263;28;38726;-75
2023/04/16 00:28:28;;;;;;;11.73;2.60;;;8.70;99.90;;;;;;5023581;28;38421;-76
2023/04/16 00:30:54;;;;;;;12.43;2.90;;;8.70;99.90;;;;;;5021744;28;38370;-76
2023/04/16 00:33:21;;;;;;;14.00;2.93;;;8.70;99.90;;;;;;5019090;28;37366;-76
2023/04/16 00:35:47;;;;;;;12.87;2.67;;;8.70;99.90;;;;;;5020211;28;38608;-76
2023/04/16 00:38:13;;;;;;;9.93;2.37;;;8.70;99.90;;;;;;5020976;28;37491;-76
2023/04/16 00:40:39;;;;;;;17.00;3.67;;;8.70;99.90;;;;;;5018298;28;36886;-76
2023/04/16 00:43:05;;;;;;;13.27;2.40;;;8.70;99.90;;;;;;5041422;28;36892;-76
2023/04/16 00:45:32;;;;;;;14.70;2.60;;;8.70;99.90;;;;;;5022886;28;38372;-76
2023/04/16 00:47:59;;;;;;;9.23;2.17;;;8.70;99.90;;;;;;5025416;28;39394;-77
2023/04/16 00:50:25;;;;;;;11.97;2.40;;;8.60;99.90;;;;;;5028016;28;36859;-76
2023/04/16 00:52:52;;;;;;;16.90;3.50;;;8.70;99.90;;;;;;5024060;28;36058;-76
2023/04/16 00:55:20;;;;;;;8.13;2.33;;;8.60;99.90;;;;;;5024120;28;38908;-76
2023/04/16 00:57:46;;;;;;;12.30;2.10;;;8.60;99.90;;;;;;5026088;28;37135;-76
2023/04/16 01:00:12;;;;;;;13.53;2.60;;;8.60;99.90;;;;;;5031694;28;38230;-76
2023/04/16 01:02:38;;;;;;;7.40;1.93;;;8.70;99.90;;;;;;5503076;23;36165;-79
2023/04/16 01:05:11;;;;;;;7.90;2.10;;;8.70;99.90;;;;;;5052414;28;38977;-79
2023/04/16 01:07:37;;;;;;;9.93;2.45;;;8.70;99.90;;;;;;5045647;28;37981;-78
2023/04/16 01:10:03;;;;;;;12.87;2.10;;;8.60;99.90;;;;;;5047517;28;39413;-78
2023/04/16 01:12:30;;;;;;;16.23;2.70;;;8.60;99.90;;;;;;5042265;28;47187;-78
2023/04/16 01:14:56;;;;;;;12.80;2.20;;;8.60;99.90;;;;;;5042291;28;40118;-79
2023/04/16 01:17:25;;;;;;;13.13;2.43;;;8.70;99.90;;;;;;5047003;28;38886;-79
2023/04/16 01:19:51;;;;;;;8.53;2.33;;;8.70;99.90;;;;;;5041668;28;37207;-78
2023/04/16 01:22:17;;;;;;;9.40;2.30;;;8.70;99.90;;;;;;5037329;28;36157;-80
2023/04/16 01:24:44;;;;;;;13.53;2.67;;;8.70;99.90;;;;;;5042947;28;39107;-79
2023/04/16 01:27:10;;;;;;;7.73;1.87;;;8.70;99.90;;;;;;5048250;28;38214;-79
2023/04/16 01:29:44;;;;;;;16.33;2.67;;;8.70;99.90;;;;;;5043158;28;37089;-79
2023/04/16 01:32:10;;;;;;;11.13;2.20;;;8.70;99.90;;;;;;5045461;28;38403;-79
2023/04/16 01:34:36;;;;;;;9.80;2.00;;;8.70;99.90;;;;;;5051410;28;38879;-79
2023/04/16 01:37:03;;;;;;;15.43;2.60;;;8.70;99.90;;;;;;5039976;28;39351;-79
2023/04/16 01:39:29;;;;;;;12.40;2.17;;;8.70;99.90;;;;;;5052587;28;36858;-79
2023/04/16 01:41:55;;;;;;;9.57;2.20;;;8.70;99.90;;;;;;5055506;28;38247;-79
2023/04/16 01:44:30;;;;;;;13.43;1.93;;;8.70;99.90;;;;;;5056504;28;40360;-79
2023/04/16 01:46:56;;;;;;;10.90;2.23;;;8.70;99.90;;;;;;5055308;28;39876;-80
2023/04/16 01:49:22;;;;;;;11.23;2.20;;;8.70;99.90;;;;;;5052131;28;39224;-80
2023/04/16 01:51:48;;;;;;;15.93;2.33;;;8.70;99.90;;;;;;5049731;28;37396;-77
2023/04/16 01:54:14;;;;;;;8.80;1.63;;;8.70;99.90;;;;;;5042527;28;39323;-79
2023/04/16 01:56:40;;;;;;;5.63;1.77;;;8.70;99.90;;;;;;5052386;28;39678;-78
2023/04/16 01:59:06;;;;;;;10.90;2.20;;;8.70;99.90;;;;;;5037660;28;36742;-78
2023/04/16 02:01:33;;;;;;;8.40;1.90;;;8.70;99.90;;;;;;5040250;28;38626;-80
2023/04/16 02:03:59;;;;;;;8.43;1.70;;;8.70;99.90;;;;;;5042589;28;38819;-80
2023/04/16 02:06:26;;;;;;;9.37;2.07;;;8.80;99.90;;;;;;5049531;28;39951;-78
2023/04/16 02:08:52;;;;;;;10.40;1.73;;;8.70;99.90;;;;;;5046967;28;37102;-78
2023/04/16 02:11:18;;;;;;;11.50;2.53;;;8.70;99.90;;;;;;5049759;28;36886;-79
2023/04/16 02:13:44;;;;;;;10.80;2.07;;;8.70;99.90;;;;;;5046706;28;38783;-78
2023/04/16 02:16:10;;;;;;;12.53;3.03;;;8.70;99.90;;;;;;5046501;28;38005;-78
2023/04/16 02:18:37;;;;;;;13.50;3.57;;;8.70;99.90;;;;;;5045020;28;38423;-79
2023/04/16 02:21:05;;;;;;;15.33;2.40;;;8.70;99.90;;;;;;5051663;28;37292;-78
2023/04/16 02:23:31;;;;;;;10.50;2.80;;;8.70;99.90;;;;;;5037591;28;35050;-79
2023/04/16 02:25:57;;;;;;;8.47;2.10;;;8.70;99.90;;;;;;5041707;28;39857;-79
2023/04/16 02:28:24;;;;;;;11.10;2.47;;;8.70;99.90;;;;;;5042864;28;35924;-79
2023/04/16 02:30:55;;;;;;;10.13;2.23;;;8.70;99.90;;;;;;5053357;28;38207;-79
2023/04/16 02:33:21;;;;;;;10.90;2.00;;;8.70;99.90;;;;;;5036488;28;37960;-78
2023/04/16 02:35:47;;;;;;;20.87;2.93;;;8.60;99.90;;;;;;5051672;28;37333;-79
2023/04/16 02:38:14;;;;;;;6.93;2.27;;;8.70;99.90;;;;;;5048731;28;38590;-79
2023/04/16 02:40:42;;;;;;;10.53;3.20;;;8.60;99.90;;;;;;5032985;28;37436;-79
2023/04/16 02:43:09;;;;;;;8.63;2.60;;;8.60;99.90;;;;;;5049553;28;39063;-78
2023/04/16 02:45:38;;;;;;;12.70;2.13;;;8.60;99.90;;;;;;5052321;28;39708;-78
2023/04/16 02:48:06;;;;;;;9.87;2.40;;;8.60;99.90;;;;;;5053726;28;38000;-79
2023/04/16 02:50:33;;;;;;;13.10;2.50;;;8.60;99.90;;;;;;5055874;28;36450;-80
2023/04/16 02:53:05;;;;;;;9.50;2.53;;;8.60;99.90;;;;;;5049958;28;39290;-78
2023/04/16 02:55:34;;;;;;;14.20;2.42;;;8.60;99.90;;;;;;5049324;28;48108;-78
2023/04/16 02:58:01;;;;;;;11.17;2.40;;;8.60;99.90;;;;;;5035428;28;39567;-78
2023/04/16 03:00:28;;;;;;;14.10;3.90;;;8.60;99.90;;;;;;5045880;28;50367;-79
2023/04/16 03:02:56;;;;;;;14.03;2.70;;;8.60;99.90;;;;;;5041394;28;38748;-79
2023/04/16 03:05:22;;;;;;;12.67;2.90;;;8.60;99.90;;;;;;5048355;28;37202;-79
2023/04/16 03:07:49;;;;;;;12.60;3.03;;;8.60;99.90;;;;;;5053991;28;38693;-79
2023/04/16 03:10:15;;;;;;;17.93;2.93;;;8.60;99.90;;;;;;5046035;28;37348;-79
2023/04/16 03:12:42;;;;;;;15.03;2.63;;;8.60;99.90;;;;;;5041801;28;40239;-79
2023/04/16 03:15:10;;;;;;;11.83;3.43;;;8.60;99.90;;;;;;5041797;28;37536;-79
2023/04/16 03:17:36;;;;;;;14.20;3.00;;;8.60;99.90;;;;;;5048575;28;37193;-79
2023/04/16 03:20:03;;;;;;;10.07;2.50;;;8.50;99.90;;;;;;5041749;28;36399;-78
2023/04/16 03:22:29;;;;;;;8.37;2.50;;;8.50;99.90;;;;;;5052034;28;38937;-77
2023/04/16 03:24:55;;;;;;;9.37;2.37;;;8.50;99.90;;;;;;5043456;28;38241;-78
2023/04/16 03:27:22;;;;;;;9.17;3.33;;;8.50;99.90;;;;;;5043276;28;37079;-78
2023/04/16 03:29:48;;;;;;;11.30;3.67;;;8.40;99.90;;;;;;5036061;28;36108;-78
2023/04/16 03:32:14;;;;;;;12.97;4.40;;;8.40;99.90;;;;;;5047138;28;39238;-79
2023/04/16 03:34:43;;;;;;;11.13;3.43;;;8.30;99.90;;;;;;5052059;28;39759;-79
2023/04/16 03:37:11;;;;;;;12.63;4.03;;;8.20;99.90;;;;;;5050277;28;38090;-79
2023/04/16 03:39:37;;;;;;;13.33;4.03;;;8.20;99.90;;;;;;5043046;28;35943;-80
2023/04/16 03:42:05;;;;;;;13.10;3.90;;;8.10;99.90;;;;;;5044080;28;37919;-78
2023/04/16 03:44:31;;;;;;;13.57;4.00;;;8.00;99.90;;;;;;5043307;28;39299;-79
2023/04/16 03:46:58;;;;;;;15.17;3.77;;;8.00;99.90;;;;;;5037267;28;36840;-78
2023/04/16 03:49:30;;;;;;;12.73;3.93;;;7.90;99.90;;;;;;5031431;28;35784;-79
2023/04/16 03:51:56;;;;;;;14.07;4.30;;;7.90;99.90;;;;;;5039486;28;39848;-78
2023/04/16 03:54:22;;;;;;;14.83;4.17;;;7.90;99.90;;;;;;5039129;28;38372;-79
2023/04/16 03:56:48;;;;;;;13.10;4.63;;;7.90;99.90;;;;;;5036669;28;37786;-79
2023/04/16 03:59:14;;;;;;;14.03;4.40;;;7.90;99.90;;;;;;5037677;28;36254;-78
2023/04/16 04:01:40;;;;;;;16.90;4.00;;;7.90;99.90;;;;;;5035726;28;38920;-78
2023/04/16 04:04:08;;;;;;;18.50;4.07;;;7.90;99.90;;;;;;5041284;28;39129;-77
2023/04/16 04:06:34;;;;;;;10.17;4.53;;;7.90;99.90;;;;;;5038780;28;40517;-78
2023/04/16 04:09:07;;;;;;;16.40;4.17;;;7.90;99.90;;;;;;5045346;28;37356;-79
2023/04/16 04:11:34;;;;;;;15.97;4.40;;;7.90;99.90;;;;;;5033804;28;49120;-79
2023/04/16 04:14:00;;;;;;;16.97;4.70;;;7.90;99.90;;;;;;5037834;28;37367;-78
2023/04/16 04:16:26;;;;;;;20.77;4.50;;;7.90;99.90;;;;;;5046577;28;37198;-78
2023/04/16 04:18:54;;;;;;;16.33;4.03;;;8.00;99.90;;;;;;5041125;28;38612;-78
2023/04/16 04:21:20;;;;;;;16.23;4.50;;;8.00;99.90;;;;;;5031952;28;37977;-77
2023/04/16 04:23:46;;;;;;;13.43;4.60;;;7.90;99.90;;;;;;5038793;28;38619;-78
2023/04/16 04:26:13;;;;;;;16.03;4.30;;;8.00;99.90;;;;;;5051582;28;39741;-79
2023/04/16 04:28:39;;;;;;;16.03;4.70;;;7.90;99.90;;;;;;5055071;28;37443;-78
2023/04/16 04:31:05;;;;;;;17.53;4.93;;;7.90;99.90;;;;;;5053235;28;39557;-78
2023/04/16 04:33:33;;;;;;;15.43;5.20;;;7.90;99.90;;;;;;5043803;28;38984;-78
2023/04/16 04:36:01;;;;;;;20.80;5.33;;;7.90;99.90;;;;;;5049032;28;40777;-79
2023/04/16 04:38:28;;;;;;;16.40;4.97;;;7.90;99.90;;;;;;5037235;28;47055;-79
2023/04/16 04:40:55;;;;;;;15.93;5.17;;;7.90;99.90;;;;;;5054024;28;39082;-78
2023/04/16 04:43:28;;;;;;;15.70;5.57;;;7.90;99.90;;;;;;5065163;28;38318;-79
2023/04/16 04:45:55;;;;;;;20.17;5.33;;;7.90;99.90;;;;;;5052694;28;39598;-78
2023/04/16 04:48:25;;;;;;;14.57;5.03;;;7.90;99.90;;;;;;5046809;28;36590;-78
2023/04/16 04:50:52;;;;;;;20.67;5.23;;;8.00;99.90;;;;;;5037154;28;39126;-77
2023/04/16 04:53:18;;;;;;;23.17;5.60;;;8.00;99.90;;;;;;5069869;28;37055;-79
2023/04/16 04:55:47;;;;;;;17.07;6.07;;;8.00;99.90;;;;;;5057696;28;38580;-79
2023/04/16 04:58:13;;;;;;;22.57;5.20;;;8.00;99.90;;;;;;5048657;28;37594;-79
2023/04/16 05:00:41;;;;;;;31.63;6.70;;;8.00;99.90;;;;;;5053597;28;39001;-79
2023/04/16 05:03:20;;;;;;;20.60;6.70;;;8.10;99.90;;;;;;5044310;28;39137;-79
2023/04/16 05:05:47;;;;;;;16.03;5.50;;;8.10;99.90;;;;;;5055763;28;38338;-79
2023/04/16 05:08:13;;;;;;;17.37;5.20;;;8.10;99.90;;;;;;5045926;28;36258;-79
2023/04/16 05:10:39;;;;;;;14.23;4.37;;;8.10;99.90;;;;;;5051283;28;37788;-79
2023/04/16 05:13:05;;;;;;;20.87;4.93;;;8.10;99.90;;;;;;5048142;28;38150;-79
2023/04/16 05:15:33;;;;;;;24.77;4.70;;;8.20;99.90;;;;;;5055406;28;39589;-79
2023/04/16 05:17:59;;;;;;;21.10;5.37;;;8.20;99.90;;;;;;5053736;28;37190;-79
2023/04/16 05:20:25;;;;;;;16.57;4.50;;;8.20;99.90;;;;;;5046854;28;37531;-79
2023/04/16 05:22:51;;;;;;;22.93;4.83;;;8.20;99.90;;;;;;5050968;28;38721;-78
2023/04/16 05:25:17;;;;;;;15.73;4.37;;;8.20;99.90;;;;;;5043889;28;38627;-79
2023/04/16 05:27:43;;;;;;;19.43;4.80;;;8.30;99.90;;;;;;5042309;28;37208;-79
2023/04/16 05:30:11;;;;;;;27.70;4.60;;;8.30;99.90;;;;;;5033380;28;38714;-79
2023/04/16 05:32:40;;;;;;;14.33;4.40;;;8.20;99.90;;;;;;5040458;28;37272;-79
2023/04/16 05:35:06;;;;;;;13.20;3.57;;;8.20;99.90;;;;;;5039200;28;39584;-77
2023/04/16 05:37:32;;;;;;;16.93;3.87;;;8.30;99.90;;;;;;5037579;28;37447;-78
2023/04/16 05:39:58;;;;;;;13.50;3.30;;;8.30;99.90;;;;;;5030886;28;39296;-77
2023/04/16 05:42:24;;;;;;;16.37;3.30;;;8.20;99.90;;;;;;5027599;28;37176;-79
2023/04/16 05:44:51;;;;;;;11.30;3.77;;;8.20;99.90;;;;;;5033344;28;37158;-76
2023/04/16 05:47:17;;;;;;;11.10;3.07;;;8.30;99.90;;;;;;5035380;28;38520;-77
2023/04/16 05:49:43;;;;;;;13.57;3.20;;;8.30;99.90;;;;;;5036054;28;39267;-78
2023/04/16 05:52:10;;;;;;;17.87;3.70;;;8.20;99.90;;;;;;5033348;28;36935;-78
2023/04/16 05:54:36;;;;;;;15.67;3.00;;;8.20;99.90;;;;;;5036053;28;38184;-78
2023/04/16 05:57:02;;;;;;;11.97;3.10;;;8.20;99.90;;;;;;5028367;28;35833;-78
2023/04/16 05:59:29;;;;;;;14.43;3.43;;;8.20;99.90;;;;;;5027774;28;37631;-77
2023/04/16 06:01:56;;;;;;;13.90;3.23;;;8.30;99.90;;;;;;5016941;28;37042;-76
2023/04/16 06:04:22;;;;;;;12.77;3.93;;;8.30;99.90;;;;;;5021508;28;36738;-78
2023/04/16 06:06:48;;;;;;;9.17;2.97;;;8.30;99.90;;;;;;5030743;28;35932;-78
2023/04/16 06:09:14;;;;;;;14.97;4.07;;;8.40;99.90;;;;;;5034883;28;39812;-79
2023/04/16 06:11:41;;;;;;;12.50;3.10;;;8.40;99.90;;;;;;5029887;28;37379;-78
2023/04/16 06:14:07;;;;;;;15.17;3.43;;;8.40;99.90;;;;;;5027862;28;37002;-79
2023/04/16 06:16:33;;;;;;;16.63;3.90;;;8.50;99.90;;;;;;5029938;28;37848;-78
2023/04/16 06:18:59;;;;;;;19.03;4.07;;;8.40;99.90;;;;;;5028359;28;38847;-74
2023/04/16 06:21:25;;;;;;;16.00;3.47;;;8.50;99.90;;;;;;5024649;28;38376;-73
2023/04/16 06:23:51;;;;;;;15.37;3.93;;;8.50;99.90;;;;;;5026061;28;37287;-72
2023/04/16 06:26:17;;;;;;;13.93;4.33;;;8.50;99.90;;;;;;5026506;28;37304;-74
2023/04/16 06:28:43;;;;;;;10.43;3.33;;;8.50;99.90;;;;;;5025172;28;41617;-72
2023/04/16 06:31:09;;;;;;;18.73;3.93;;;8.50;99.90;;;;;;5022518;28;37009;-73
2023/04/16 06:33:37;;;;;;;13.53;3.30;;;8.60;99.90;;;;;;5007904;28;20840;-75
2023/04/16 06:36:03;;;;;;;13.90;3.50;;;8.60;99.90;;;;;;5024403;28;35787;-76
2023/04/16 06:38:29;;;;;;;14.87;4.70;;;8.60;99.90;;;;;;5023839;28;37504;-77
2023/04/16 06:40:55;;;;;;;11.03;3.30;;;8.60;99.90;;;;;;5033978;28;38739;-77
2023/04/16 06:43:22;;;;;;;12.27;3.40;;;8.60;99.90;;;;;;5033325;28;38638;-77
2023/04/16 06:45:48;;;;;;;14.87;3.80;;;8.60;99.90;;;;;;5022094;28;36135;-75
2023/04/16 06:48:14;;;;;;;14.63;3.80;;;8.60;99.90;;;;;;5024830;28;37827;-76
2023/04/16 06:50:41;;;;;;;15.27;4.07;;;8.60;99.90;;;;;;5019641;28;37438;-77
2023/04/16 06:53:07;;;;;;;11.43;3.27;;;8.70;99.90;;;;;;5026048;28;37996;-77
2023/04/16 06:55:33;;;;;;;12.13;3.80;;;8.80;99.90;;;;;;5026962;28;35981;-77
2023/04/16 06:57:59;;;;;;;16.97;3.53;;;8.80;99.90;;;;;;5023976;28;37638;-77
2023/04/16 07:00:25;;;;;;;10.17;3.17;;;9.00;99.90;;;;;;5022667;28;37267;-77
2023/04/16 07:02:51;;;;;;;10.17;3.00;;;9.10;99.90;;;;;;5024240;28;38065;-77
2023/04/16 07:05:17;;;;;;;15.93;4.20;;;9.20;99.90;;;;;;5025242;28;37162;-76
2023/04/16 07:07:43;;;;;;;12.07;2.90;;;9.20;99.90;;;;;;5027323;28;39080;-77
2023/04/16 07:10:09;;;;;;;11.37;2.80;;;9.10;99.90;;;;;;5019265;28;38645;-77
2023/04/16 07:12:36;;;;;;;15.13;3.03;;;9.00;99.90;;;;;;5029148;28;37878;-78
2023/04/16 07:15:02;;;;;;;12.63;2.90;;;8.90;99.90;;;;;;5024283;28;36542;-78
2023/04/16 07:17:28;;;;;;;17.73;3.40;;;8.90;99.90;;;;;;5027290;28;38826;-78
2023/04/16 07:19:54;;;;;;;9.00;2.97;;;8.80;99.90;;;;;;5017776;28;38545;-78
2023/04/16 07:22:20;;;;;;;6.23;2.90;;;8.80;99.90;;;;;;5024629;28;37082;-77
2023/04/16 07:24:46;;;;;;;8.13;3.03;;;8.80;99.90;;;;;;5030147;28;35993;-77
2023/04/16 07:27:12;;;;;;;10.37;3.47;;;8.90;99.90;;;;;;5020910;28;37609;-78
2023/04/16 07:29:39;;;;;;;11.07;3.47;;;8.80;99.90;;;;;;5016647;28;38932;-75
2023/04/16 07:32:05;;;;;;;8.67;3.30;;;8.90;99.90;;;;;;5029174;28;38125;-76
2023/04/16 07:34:31;;;;;;;12.57;3.53;;;9.00;99.90;;;;;;5033488;28;38361;-77
2023/04/16 07:36:57;;;;;;;9.77;2.70;;;9.10;99.90;;;;;;5032244;28;37437;-78
2023/04/16 07:39:26;;;;;;;11.23;2.63;;;9.10;99.90;;;;;;5026110;28;36996;-73
2023/04/16 07:41:52;;;;;;;10.43;3.25;;;9.10;99.90;;;;;;5018894;28;37944;-75
2023/04/16 07:44:18;;;;;;;8.47;3.67;;;9.10;99.90;;;;;;5029316;28;37362;-75
2023/04/16 07:46:44;;;;;;;7.80;3.23;;;9.10;99.90;;;;;;5019648;28;37611;-76
2023/04/16 07:49:10;;;;;;;11.17;3.47;;;9.00;99.90;;;;;;5026876;28;38041;-75
2023/04/16 07:51:36;;;;;;;8.13;3.67;;;9.10;99.90;;;;;;5029012;28;38941;-76
2023/04/16 07:54:03;;;;;;;8.43;3.37;;;9.00;99.90;;;;;;5029059;28;36786;-75
2023/04/16 07:56:29;;;;;;;9.67;3.10;;;9.00;99.90;;;;;;5022422;28;39924;-73
2023/04/16 07:58:55;;;;;;;9.67;3.70;;;9.00;99.90;;;;;;5018253;28;37418;-75
2023/04/16 08:01:21;;;;;;;7.83;3.57;;;9.10;99.90;;;;;;5021205;28;38247;-75
2023/04/16 08:03:47;;;;;;;7.90;2.50;;;9.20;99.90;;;;;;5020751;28;39831;-75
2023/04/16 08:06:13;;;;;;;8.70;2.53;;;9.30;99.90;;;;;;5020694;28;38487;-75
2023/04/16 08:08:39;;;;;;;8.87;3.07;;;9.30;99.90;;;;;;5025710;28;38372;-75
2023/04/16 08:11:05;;;;;;;7.37;2.77;;;9.40;99.90;;;;;;5024079;28;37370;-75
2023/04/16 08:13:31;;;;;;;5.97;2.58;;;9.30;99.90;;;;;;5025726;28;38484;-75
2023/04/16 08:15:57;;;;;;;9.02;2.97;;;9.40;99.90;;;;;;5015336;28;37724;-76
2023/04/16 08:18:24;;;;;;;9.63;2.90;;;9.40;99.90;;;;;;5028950;28;39495;-75
2023/04/16 08:20:50;;;;;;;13.40;4.87;;;9.30;99.90;;;;;;5021828;28;37634;-76
2023/04/16 08:23:16;;;;;;;10.60;3.20;;;9.30;99.90;;;;;;5036142;28;35996;-73
2023/04/16 08:25:42;;;;;;;10.70;3.55;;;9.30;99.90;;;;;;5020306;28;38784;-73
2023/04/16 08:28:08;;;;;;;6.80;3.13;;;9.20;99.90;;;;;;5026006;28;37850;-75
2023/04/16 08:30:35;;;;;;;6.97;2.83;;;9.30;99.90;;;;;;5016011;28;38031;-75
2023/04/16 08:33:01;;;;;;;9.57;3.13;;;9.30;99.90;;;;;;5023282;28;36353;-75
2023/04/16 08:35:27;;;;;;;6.97;3.43;;;9.50;99.90;;;;;;5021618;28;47734;-76
2023/04/16 08:37:53;;;;;;;7.30;3.20;;;9.50;99.90;;;;;;5021608;28;38316;-74
2023/04/16 08:40:19;;;;;;;8.90;3.60;;;9.60;99.90;;;;;;5022144;28;38874;-75
2023/04/16 08:42:53;;;;;;;8.32;3.45;;;9.60;99.90;;;;;;5021679;28;37155;-74
2023/04/16 08:45:19;;;;;;;8.93;3.30;;;9.60;99.90;;;;;;5016212;28;38770;-76
2023/04/16 08:47:49;;;;;;;11.48;3.58;;;9.80;99.90;;;;;;5020922;28;38182;-77
2023/04/16 08:50:21;;;;;;;10.13;3.67;;;9.70;99.90;;;;;;5024258;28;38180;-77
2023/04/16 08:52:58;;;;;;;21.25;3.95;;;9.70;99.90;;;;;;5018905;28;36168;-76
2023/04/16 08:55:48;;;;;;;29.63;4.97;;;9.80;99.90;;;;;;5022222;28;38496;-77
2023/04/16 08:58:30;;;;;;;15.43;4.13;;;9.70;99.90;;;;;;5022390;28;37610;-76
2023/04/16 09:00:56;;;;;;;12.02;3.97;;;9.60;99.90;;;;;;5016843;28;38420;-76
2023/04/16 09:03:23;;;;;;;12.75;3.95;;;9.60;99.90;;;;;;5022058;28;36249;-76
2023/04/16 09:05:49;;;;;;;15.80;4.45;;;9.80;99.90;;;;;;5016435;28;41134;-76
2023/04/16 09:08:17;;;;;;;8.55;3.58;;;9.90;99.90;;;;;;5019636;28;37503;-76
2023/04/16 09:10:43;;;;;;;12.80;3.60;;;9.90;99.90;;;;;;5027458;28;37166;-76
2023/04/16 09:13:10;;;;;;;13.63;3.50;;;9.90;99.90;;;;;;5022093;28;37053;-76
2023/04/16 09:15:38;;;;;;;8.95;3.20;;;9.90;99.90;;;;;;5017276;28;38970;-76
2023/04/16 09:18:04;;;;;;;9.40;3.00;;;9.90;99.90;;;;;;5024393;28;37654;-77
2023/04/16 09:20:30;;;;;;;14.00;3.55;;;9.70;99.90;;;;;;5027451;28;37888;-76
2023/04/16 09:22:56;;;;;;;8.15;2.97;;;9.70;99.90;;;;;;5028645;28;36079;-77
2023/04/16 09:25:25;;;;;;;8.50;3.47;;;9.80;99.90;;;;;;5025289;28;39842;-77
2023/04/16 09:27:51;;;;;;;14.57;3.38;;;9.70;99.90;;;;;;5020955;28;39635;-74
2023/04/16 09:30:21;;;;;;;10.13;3.38;;;9.70;99.90;;;;;;5015576;28;38662;-75
2023/04/16 09:32:48;;;;;;;7.35;3.13;;;9.80;99.90;;;;;;5017699;28;37164;-74
2023/04/16 09:35:15;;;;;;;10.10;3.92;;;9.80;99.90;;;;;;5021576;28;38819;-74
2023/04/16 09:37:41;;;;;;;9.65;3.40;;;9.80;99.90;;;;;;5024254;28;38495;-76
2023/04/16 09:40:08;;;;;;;8.40;3.58;;;9.80;99.90;;;;;;5019060;28;38593;-75
2023/04/16 09:42:35;;;;;;;8.65;2.80;;;9.90;99.90;;;;;;5019974;28;36404;-77
2023/04/16 09:45:02;;;;;;;9.90;3.00;;;10.00;99.90;;;;;;5022700;28;38501;-77
2023/04/16 09:47:42;;;;;;;8.93;2.95;;;9.90;99.90;;;;;;5017472;28;38119;-78
2023/04/16 09:50:15;;;;;;;7.72;3.03;;;10.00;99.90;;;;;;5021270;28;36861;-78
2023/04/16 09:52:44;;;;;;;11.35;3.38;;;10.10;99.90;;;;;;5019381;28;37517;-77
2023/04/16 09:55:10;;;;;;;8.25;3.10;;;10.10;99.90;;;;;;5017129;28;39072;-77
2023/04/16 09:57:37;;;;;;;10.80;3.22;;;10.00;99.90;;;;;;5025047;28;38068;-77
2023/04/16 10:00:06;;;;;;;12.93;3.55;;;10.00;99.90;;;;;;5015260;28;36798;-77
2023/04/16 10:02:33;;;;;;;9.18;3.30;;;10.00;99.90;;;;;;5023679;28;49231;-76
2023/04/16 10:05:02;;;;;;;17.15;4.05;;;9.90;99.90;;;;;;5025857;28;37936;-77
2023/04/16 10:07:31;;;;;;;7.50;3.28;;;9.80;99.90;;;;;;5024989;28;47400;-76
2023/04/16 10:09:58;;;;;;;14.93;3.85;;;9.80;99.90;;;;;;5023250;28;37903;-77
2023/04/16 10:12:24;;;;;;;9.90;4.32;;;9.80;99.90;;;;;;5021577;28;36202;-74
2023/04/16 10:14:50;;;;;;;14.45;4.30;;;9.80;99.90;;;;;;5021839;28;37528;-77
2023/04/16 10:17:18;;;;;;;14.82;4.07;;;9.80;99.90;;;;;;5021166;28;38465;-77
2023/04/16 10:19:45;;;;;;;12.95;4.07;;;9.80;99.90;;;;;;5019694;28;37301;-77
2023/04/16 10:22:11;;;;;;;13.77;3.63;;;9.90;99.90;;;;;;5028362;28;37018;-77
2023/04/16 10:24:39;;;;;;;10.10;3.53;;;9.90;99.90;;;;;;5017717;28;37452;-77
2023/04/16 10:27:05;;;;;;;10.15;3.67;;;10.00;99.90;;;;;;5027743;28;38267;-78
2023/04/16 10:29:33;;;;;;;9.20;3.63;;;10.10;99.90;;;;;;5028639;28;38292;-79
2023/04/16 10:32:00;;;;;;;16.33;4.47;;;10.10;99.90;;;;;;5027137;28;37328;-77
2023/04/16 10:34:27;;;;;;;8.40;3.83;;;10.10;99.90;;;;;;5026749;28;38571;-77
2023/04/16 10:36:57;;;;;;;12.20;3.60;;;10.00;99.90;;;;;;5021501;28;37990;-77
2023/04/16 10:39:25;;;;;;;24.00;4.80;;;10.00;99.90;;;;;;5031510;28;37898;-77
2023/04/16 10:42:09;;;;;;;12.48;3.97;;;10.10;99.90;;;;;;5019692;28;37055;-77
2023/04/16 10:44:35;;;;;;;11.02;3.95;;;10.20;99.90;;;;;;5021760;28;48413;-80
2023/04/16 10:47:08;;;;;;;15.98;3.75;;;10.30;99.90;;;;;;5027690;28;37190;-78
2023/04/16 10:49:34;;;;;;;12.23;3.83;;;10.20;99.90;;;;;;5023686;28;47357;-78
2023/04/16 10:52:12;;;;;;;13.15;4.07;;;10.30;99.90;;;;;;5019850;28;36805;-77
2023/04/16 10:54:39;;;;;;;12.15;3.95;;;10.20;99.90;;;;;;5028722;28;47235;-77
2023/04/16 10:57:08;;;;;;;10.48;3.78;;;10.30;99.90;;;;;;5029392;28;38271;-78
2023/04/16 10:59:36;;;;;;;11.18;3.55;;;10.30;99.90;;;;;;5045156;28;37083;-77
2023/04/16 11:02:18;;;;;;;13.38;3.83;;;10.20;99.90;;;;;;5025810;28;37329;-79
2023/04/16 11:04:45;;;;;;;12.67;3.63;;;10.40;99.90;;;;;;5026267;28;39715;-78
2023/04/16 11:07:17;;;;;;;9.70;3.58;;;10.40;99.90;;;;;;5031461;28;39240;-79
2023/04/16 11:10:02;;;;;;;9.45;3.55;;;10.40;99.90;;;;;;5029376;28;37041;-78
2023/04/16 11:12:28;;;;;;;9.52;3.67;;;10.40;99.90;;;;;;5032430;28;47196;-79
2023/04/16 11:15:05;;;;;;;12.82;4.15;;;10.40;99.90;;;;;;5034639;28;39517;-78
2023/04/16 11:17:51;;;;;;;11.75;3.47;;;10.20;99.90;;;;;;5028330;28;48528;-78
2023/04/16 11:20:22;;;;;;;7.85;3.63;;;10.30;99.90;;;;;;5029942;28;37973;-77
2023/04/16 11:22:51;;;;;;;10.32;3.05;;;10.40;99.90;;;;;;5029150;28;38408;-79
2023/04/16 11:25:33;;;;;;;9.70;3.80;;;10.40;99.90;;;;;;5032439;28;37554;-78
2023/04/16 11:28:00;;;;;;;10.95;3.63;;;10.40;99.90;;;;;;5029286;28;38560;-79
2023/04/16 11:30:37;;;;;;;7.07;2.80;;;10.60;99.90;;;;;;5029453;28;47168;-77
2023/04/16 11:33:04;;;;;;;9.07;3.33;;;10.70;99.90;;;;;;5031581;28;37101;-79
2023/04/16 11:35:31;;;;;;;8.82;3.15;;;10.70;99.90;;;;;;5028897;28;39024;-79
2023/04/16 11:37:57;;;;;;;7.05;2.75;;;10.90;99.90;;;;;;5029432;28;37557;-79
2023/04/16 11:40:24;;;;;;;8.93;3.28;;;10.90;99.90;;;;;;5025533;28;37699;-79
2023/04/16 11:42:51;;;;;;;11.23;3.30;;;11.10;99.90;;;;;;5019177;28;36898;-80
2023/04/16 11:45:18;;;;;;;9.45;3.20;;;11.00;99.90;;;;;;5022500;28;38435;-79
2023/04/16 11:47:45;;;;;;;9.48;3.42;;;10.90;99.90;;;;;;5039959;28;37269;-77
2023/04/16 11:50:19;;;;;;;11.98;3.67;;;10.90;99.90;;;;;;5019797;28;36881;-77
2023/04/16 11:52:46;;;;;;;7.80;3.58;;;11.00;99.90;;;;;;5018325;28;38888;-77
2023/04/16 11:55:13;;;;;;;14.10;4.60;;;11.20;99.90;;;;;;5021426;28;38958;-77
2023/04/16 11:57:39;;;;;;;6.13;3.10;;;11.40;99.90;;;;;;5024967;28;37794;-78
2023/04/16 12:00:09;;;;;;;10.10;3.05;;;11.50;99.90;;;;;;5024076;28;38085;-78
2023/04/16 12:02:44;;;;;;;10.23;3.42;;;11.60;99.90;;;;;;5020899;28;36335;-79
2023/04/16 12:05:26;;;;;;;7.57;3.30;;;11.60;99.90;;;;;;5030546;28;37598;-78
2023/04/16 12:07:52;;;;;;;11.15;4.40;;;11.70;99.90;;;;;;5030092;28;37362;-78
2023/04/16 12:10:19;;;;;;;10.82;3.78;;;11.90;99.90;;;;;;5028692;28;36816;-78
2023/04/16 12:12:45;;;;;;;9.63;4.05;;;11.60;99.90;;;;;;5021643;28;36007;-77
2023/04/16 12:15:11;;;;;;;11.05;3.38;;;11.60;99.90;;;;;;5024897;28;38526;-78
2023/04/16 12:17:37;;;;;;;7.85;3.33;;;11.70;99.90;;;;;;5029899;28;37442;-78
2023/04/16 12:20:12;;;;;;;10.32;3.63;;;11.70;99.90;;;;;;5027741;28;36847;-77
2023/04/16 12:22:40;;;;;;;8.57;2.92;;;11.80;99.90;;;;;;5026844;28;47927;-77
2023/04/16 12:25:16;;;;;;;8.18;3.17;;;11.90;99.90;;;;;;5025590;28;37666;-77
2023/04/16 12:27:54;;;;;;;8.95;3.08;;;11.90;99.90;;;;;;5027040;28;37200;-78
2023/04/16 12:30:24;;;;;;;9.30;3.47;;;12.10;99.90;;;;;;5026859;28;38732;-78
2023/04/16 12:33:12;;;;;;;9.30;3.42;;;12.20;99.90;;;;;;5018290;28;37188;-78
2023/04/16 12:35:40;;;;;;;10.27;3.13;;;12.20;99.90;;;;;;5029020;28;47322;-79
2023/04/16 12:38:06;;;;;;;10.50;3.40;;;12.20;99.90;;;;;;5037545;28;38638;-78
2023/04/16 12:40:33;;;;;;;11.02;3.05;;;12.20;99.90;;;;;;5027525;28;38524;-78
2023/04/16 12:42:59;;;;;;;9.18;2.92;;;12.30;99.90;;;;;;5030021;28;38293;-78
2023/04/16 12:45:25;;;;;;;6.32;2.67;;;12.30;99.90;;;;;;5020137;28;37500;-79
2023/04/16 12:47:51;;;;;;;9.30;3.63;;;12.30;99.90;;;;;;5031290;28;38485;-78
2023/04/16 12:50:17;;;;;;;9.52;3.80;;;12.30;99.90;;;;;;5026860;28;38288;-76